sensor_id;sensor_type;location;lat;lon;timestamp;P1;durP1;ratioP1;P2;durP2;ratioP2
15831;SDS011;8016;49.928;9.372;2023-06-14T00:00:18;5.20;;;4.80;;
15831;SDS011;8016;49.928;9.372;2023-06-14T00:02:45;5.53;;;4.83;;
15831;SDS011;8016;49.928;9.372;2023-06-14T00:05:11;5.80;;;4.60;;
15831;SDS011;8016;49.928;9.372;2023-06-14T00:07:40;5.53;;;5.03;;
15831;SDS011;8016;49.928;9.372;2023-06-14T00:10:07;5.97;;;4.90;;
15831;SDS011;8016;49.928;9.372;2023-06-14T00:12:33;6.17;;;4.90;;
15831;SDS011;8016;49.928;9.372;2023-06-14T00:15:00;7.37;;;4.97;;
15831;SDS011;8016;49.928;9.372;2023-06-14T00:17:29;7.70;;;5.00;;
15831;SDS011;8016;49.928;9.372;2023-06-14T00:19:58;6.60;;;4.93;;
15831;SDS011;8016;49.928;9.372;2023-06-14T00:22:24;5.10;;;4.60;;
15831;SDS011;8016;49.928;9.372;2023-06-14T00:24:50;5.33;;;4.83;;
15831;SDS011;8016;49.928;9.372;2023-06-14T00:27:17;5.53;;;4.60;;
15831;SDS011;8016;49.928;9.372;2023-06-14T00:29:43;6.27;;;4.73;;
15831;SDS011;8016;49.928;9.372;2023-06-14T00:32:09;6.70;;;5.23;;
15831;SDS011;8016;49.928;9.372;2023-06-14T00:34:35;6.47;;;5.40;;
15831;SDS011;8016;49.928;9.372;2023-06-14T00:37:01;5.40;;;4.90;;
15831;SDS011;8016;49.928;9.372;2023-06-14T00:39:27;5.93;;;4.70;;
15831;SDS011;8016;49.928;9.372;2023-06-14T00:41:53;5.57;;;4.97;;
15831;SDS011;8016;49.928;9.372;2023-06-14T00:44:19;5.23;;;4.33;;
15831;SDS011;8016;49.928;9.372;2023-06-14T00:46:46;6.00;;;5.00;;
15831;SDS011;8016;49.928;9.372;2023-06-14T00:49:12;5.53;;;5.03;;
15831;SDS011;8016;49.928;9.372;2023-06-14T00:51:39;7.37;;;5.10;;
15831;SDS011;8016;49.928;9.372;2023-06-14T00:54:05;6.83;;;5.67;;
15831;SDS011;8016;49.928;9.372;2023-06-14T00:56:30;5.67;;;4.97;;
15831;SDS011;8016;49.928;9.372;2023-06-14T00:58:57;6.00;;;5.07;;
15831;SDS011;8016;49.928;9.372;2023-06-14T01:01:23;5.20;;;4.70;;
15831;SDS011;8016;49.928;9.372;2023-06-14T01:03:49;6.07;;;5.30;;
15831;SDS011;8016;49.928;9.372;2023-06-14T01:09:10;8.43;;;5.10;;
15831;SDS011;8016;49.928;9.372;2023-06-14T01:12:14;5.70;;;4.57;;
15831;SDS011;8016;49.928;9.372;2023-06-14T01:14:32;7.63;;;4.67;;
15831;SDS011;8016;49.928;9.372;2023-06-14T01:16:59;7.30;;;4.83;;
15831;SDS011;8016;49.928;9.372;2023-06-14T01:19:26;5.93;;;5.00;;
15831;SDS011;8016;49.928;9.372;2023-06-14T01:21:53;7.57;;;4.97;;
15831;SDS011;8016;49.928;9.372;2023-06-14T01:24:20;5.53;;;4.60;;
15831;SDS011;8016;49.928;9.372;2023-06-14T01:26:50;5.23;;;4.67;;
15831;SDS011;8016;49.928;9.372;2023-06-14T01:29:20;9.67;;;4.77;;
15831;SDS011;8016;49.928;9.372;2023-06-14T01:31:46;5.13;;;4.63;;
15831;SDS011;8016;49.928;9.372;2023-06-14T01:34:12;6.00;;;4.60;;
15831;SDS011;8016;49.928;9.372;2023-06-14T01:36:39;6.23;;;4.13;;
15831;SDS011;8016;49.928;9.372;2023-06-14T01:39:06;8.57;;;4.60;;
15831;SDS011;8016;49.928;9.372;2023-06-14T01:41:33;5.90;;;4.33;;
15831;SDS011;8016;49.928;9.372;2023-06-14T01:44:00;6.73;;;4.07;;
15831;SDS011;8016;49.928;9.372;2023-06-14T01:46:27;7.67;;;4.73;;
15831;SDS011;8016;49.928;9.372;2023-06-14T01:48:53;5.70;;;4.47;;
15831;SDS011;8016;49.928;9.372;2023-06-14T01:51:19;4.43;;;4.03;;
15831;SDS011;8016;49.928;9.372;2023-06-14T01:53:45;6.40;;;4.10;;
15831;SDS011;8016;49.928;9.372;2023-06-14T01:56:11;8.07;;;4.97;;
15831;SDS011;8016;49.928;9.372;2023-06-14T01:58:37;4.90;;;4.23;;
15831;SDS011;8016;49.928;9.372;2023-06-14T02:01:04;5.60;;;4.50;;
15831;SDS011;8016;49.928;9.372;2023-06-14T02:03:31;5.77;;;4.33;;
15831;SDS011;8016;49.928;9.372;2023-06-14T02:05:57;6.80;;;4.50;;
15831;SDS011;8016;49.928;9.372;2023-06-14T02:08:23;4.40;;;4.00;;
15831;SDS011;8016;49.928;9.372;2023-06-14T02:10:50;7.90;;;4.73;;
15831;SDS011;8016;49.928;9.372;2023-06-14T02:13:16;8.10;;;4.63;;
15831;SDS011;8016;49.928;9.372;2023-06-14T02:15:42;6.10;;;4.70;;
15831;SDS011;8016;49.928;9.372;2023-06-14T02:18:09;4.23;;;3.83;;
15831;SDS011;8016;49.928;9.372;2023-06-14T02:20:36;5.23;;;4.73;;
15831;SDS011;8016;49.928;9.372;2023-06-14T02:23:02;9.50;;;4.80;;
15831;SDS011;8016;49.928;9.372;2023-06-14T02:25:28;5.83;;;4.57;;
15831;SDS011;8016;49.928;9.372;2023-06-14T02:27:54;7.33;;;5.00;;
15831;SDS011;8016;49.928;9.372;2023-06-14T02:30:20;5.10;;;4.53;;
15831;SDS011;8016;49.928;9.372;2023-06-14T02:32:46;6.63;;;4.63;;
15831;SDS011;8016;49.928;9.372;2023-06-14T02:35:13;5.13;;;4.63;;
15831;SDS011;8016;49.928;9.372;2023-06-14T02:37:40;5.73;;;4.90;;
15831;SDS011;8016;49.928;9.372;2023-06-14T02:40:06;5.90;;;4.37;;
15831;SDS011;8016;49.928;9.372;2023-06-14T02:42:34;5.37;;;4.80;;
15831;SDS011;8016;49.928;9.372;2023-06-14T02:44:59;6.80;;;5.00;;
15831;SDS011;8016;49.928;9.372;2023-06-14T02:47:27;6.33;;;5.07;;
15831;SDS011;8016;49.928;9.372;2023-06-14T02:49:53;5.33;;;4.83;;
15831;SDS011;8016;49.928;9.372;2023-06-14T02:52:19;5.13;;;4.63;;
15831;SDS011;8016;49.928;9.372;2023-06-14T02:54:45;5.53;;;4.93;;
15831;SDS011;8016;49.928;9.372;2023-06-14T02:57:12;5.83;;;4.03;;
15831;SDS011;8016;49.928;9.372;2023-06-14T02:59:38;5.57;;;4.60;;
15831;SDS011;8016;49.928;9.372;2023-06-14T03:02:04;6.00;;;5.13;;
15831;SDS011;8016;49.928;9.372;2023-06-14T03:04:30;7.07;;;4.57;;
15831;SDS011;8016;49.928;9.372;2023-06-14T03:07:02;9.57;;;5.30;;
15831;SDS011;8016;49.928;9.372;2023-06-14T03:09:33;9.07;;;5.00;;
15831;SDS011;8016;49.928;9.372;2023-06-14T03:12:00;6.43;;;4.73;;
15831;SDS011;8016;49.928;9.372;2023-06-14T03:14:26;5.13;;;4.60;;
15831;SDS011;8016;49.928;9.372;2023-06-14T03:16:51;7.93;;;4.50;;
15831;SDS011;8016;49.928;9.372;2023-06-14T03:19:21;6.87;;;5.20;;
15831;SDS011;8016;49.928;9.372;2023-06-14T03:21:47;6.37;;;4.93;;
15831;SDS011;8016;49.928;9.372;2023-06-14T03:24:14;7.30;;;5.67;;
15831;SDS011;8016;49.928;9.372;2023-06-14T03:26:43;5.13;;;4.53;;
15831;SDS011;8016;49.928;9.372;2023-06-14T03:29:09;5.37;;;4.87;;
15831;SDS011;8016;49.928;9.372;2023-06-14T03:31:35;5.80;;;5.13;;
15831;SDS011;8016;49.928;9.372;2023-06-14T03:34:01;5.60;;;5.07;;
15831;SDS011;8016;49.928;9.372;2023-06-14T03:36:27;6.30;;;5.63;;
15831;SDS011;8016;49.928;9.372;2023-06-14T03:38:54;7.93;;;4.93;;
15831;SDS011;8016;49.928;9.372;2023-06-14T03:41:20;19.00;;;6.30;;
15831;SDS011;8016;49.928;9.372;2023-06-14T03:43:46;5.33;;;4.53;;
15831;SDS011;8016;49.928;9.372;2023-06-14T03:46:12;8.73;;;4.90;;
15831;SDS011;8016;49.928;9.372;2023-06-14T03:48:38;8.13;;;5.40;;
15831;SDS011;8016;49.928;9.372;2023-06-14T03:51:04;11.70;;;5.17;;
15831;SDS011;8016;49.928;9.372;2023-06-14T03:53:30;7.33;;;4.60;;
15831;SDS011;8016;49.928;9.372;2023-06-14T03:55:56;5.73;;;4.70;;
15831;SDS011;8016;49.928;9.372;2023-06-14T03:58:22;5.63;;;3.83;;
15831;SDS011;8016;49.928;9.372;2023-06-14T04:00:48;5.97;;;5.00;;
15831;SDS011;8016;49.928;9.372;2023-06-14T04:03:14;5.87;;;5.23;;
15831;SDS011;8016;49.928;9.372;2023-06-14T04:05:41;6.73;;;4.93;;
15831;SDS011;8016;49.928;9.372;2023-06-14T04:08:07;7.53;;;4.93;;
15831;SDS011;8016;49.928;9.372;2023-06-14T04:10:34;5.63;;;5.10;;
15831;SDS011;8016;49.928;9.372;2023-06-14T04:13:00;6.13;;;5.20;;
15831;SDS011;8016;49.928;9.372;2023-06-14T04:15:26;7.27;;;4.73;;
15831;SDS011;8016;49.928;9.372;2023-06-14T04:17:55;6.57;;;5.00;;
15831;SDS011;8016;49.928;9.372;2023-06-14T04:20:22;6.73;;;5.30;;
15831;SDS011;8016;49.928;9.372;2023-06-14T04:22:51;6.60;;;5.00;;
15831;SDS011;8016;49.928;9.372;2023-06-14T04:25:17;11.27;;;5.27;;
15831;SDS011;8016;49.928;9.372;2023-06-14T04:27:43;5.93;;;5.10;;
15831;SDS011;8016;49.928;9.372;2023-06-14T04:30:09;5.67;;;5.07;;
15831;SDS011;8016;49.928;9.372;2023-06-14T04:32:35;7.70;;;5.33;;
15831;SDS011;8016;49.928;9.372;2023-06-14T04:35:04;6.30;;;5.10;;
15831;SDS011;8016;49.928;9.372;2023-06-14T04:37:30;7.37;;;4.63;;
15831;SDS011;8016;49.928;9.372;2023-06-14T04:39:56;5.57;;;5.07;;
15831;SDS011;8016;49.928;9.372;2023-06-14T04:42:23;5.90;;;4.80;;
15831;SDS011;8016;49.928;9.372;2023-06-14T04:44:50;5.53;;;4.37;;
15831;SDS011;8016;49.928;9.372;2023-06-14T04:47:16;5.10;;;4.60;;
15831;SDS011;8016;49.928;9.372;2023-06-14T04:49:43;5.17;;;4.57;;
15831;SDS011;8016;49.928;9.372;2023-06-14T04:52:09;6.47;;;4.70;;
15831;SDS011;8016;49.928;9.372;2023-06-14T04:54:37;6.60;;;3.93;;
15831;SDS011;8016;49.928;9.372;2023-06-14T04:57:06;5.70;;;4.53;;
15831;SDS011;8016;49.928;9.372;2023-06-14T04:59:32;4.57;;;3.83;;
15831;SDS011;8016;49.928;9.372;2023-06-14T05:02:00;5.73;;;4.00;;
15831;SDS011;8016;49.928;9.372;2023-06-14T05:04:26;5.90;;;4.20;;
15831;SDS011;8016;49.928;9.372;2023-06-14T05:06:53;6.53;;;4.53;;
15831;SDS011;8016;49.928;9.372;2023-06-14T05:09:22;4.23;;;3.83;;
15831;SDS011;8016;49.928;9.372;2023-06-14T05:11:48;9.50;;;4.60;;
15831;SDS011;8016;49.928;9.372;2023-06-14T05:14:15;6.83;;;4.20;;
15831;SDS011;8016;49.928;9.372;2023-06-14T05:16:41;6.50;;;3.80;;
15831;SDS011;8016;49.928;9.372;2023-06-14T05:19:07;5.17;;;4.00;;
15831;SDS011;8016;49.928;9.372;2023-06-14T05:21:36;5.63;;;4.00;;
15831;SDS011;8016;49.928;9.372;2023-06-14T05:24:02;6.67;;;3.43;;
15831;SDS011;8016;49.928;9.372;2023-06-14T05:26:28;4.50;;;3.50;;
15831;SDS011;8016;49.928;9.372;2023-06-14T05:28:55;4.27;;;3.87;;
15831;SDS011;8016;49.928;9.372;2023-06-14T05:31:22;6.23;;;3.83;;
15831;SDS011;8016;49.928;9.372;2023-06-14T05:33:48;6.93;;;3.80;;
15831;SDS011;8016;49.928;9.372;2023-06-14T05:36:15;6.03;;;3.73;;
15831;SDS011;8016;49.928;9.372;2023-06-14T05:38:41;10.50;;;3.83;;
15831;SDS011;8016;49.928;9.372;2023-06-14T05:41:06;4.20;;;3.80;;
15831;SDS011;8016;49.928;9.372;2023-06-14T05:43:32;6.83;;;3.67;;
15831;SDS011;8016;49.928;9.372;2023-06-14T05:45:58;6.47;;;3.20;;
15831;SDS011;8016;49.928;9.372;2023-06-14T05:48:24;6.43;;;3.53;;
15831;SDS011;8016;49.928;9.372;2023-06-14T05:50:50;4.20;;;3.50;;
15831;SDS011;8016;49.928;9.372;2023-06-14T05:53:16;4.70;;;3.40;;
15831;SDS011;8016;49.928;9.372;2023-06-14T05:55:42;4.80;;;3.17;;
15831;SDS011;8016;49.928;9.372;2023-06-14T05:58:08;4.30;;;3.50;;
15831;SDS011;8016;49.928;9.372;2023-06-14T06:00:35;5.80;;;3.37;;
15831;SDS011;8016;49.928;9.372;2023-06-14T06:03:01;8.67;;;3.63;;
15831;SDS011;8016;49.928;9.372;2023-06-14T06:05:27;6.30;;;3.20;;
15831;SDS011;8016;49.928;9.372;2023-06-14T06:07:53;4.33;;;3.30;;
15831;SDS011;8016;49.928;9.372;2023-06-14T06:10:19;4.67;;;3.20;;
15831;SDS011;8016;49.928;9.372;2023-06-14T06:12:45;4.73;;;3.13;;
15831;SDS011;8016;49.928;9.372;2023-06-14T06:15:13;5.20;;;3.50;;
15831;SDS011;8016;49.928;9.372;2023-06-14T06:17:39;3.27;;;2.97;;
15831;SDS011;8016;49.928;9.372;2023-06-14T06:20:06;4.17;;;3.10;;
15831;SDS011;8016;49.928;9.372;2023-06-14T06:22:33;3.37;;;3.07;;
15831;SDS011;8016;49.928;9.372;2023-06-14T06:24:59;3.53;;;2.90;;
15831;SDS011;8016;49.928;9.372;2023-06-14T06:27:25;5.97;;;3.20;;
15831;SDS011;8016;49.928;9.372;2023-06-14T06:29:51;4.03;;;2.90;;
15831;SDS011;8016;49.928;9.372;2023-06-14T06:32:18;3.33;;;2.67;;
15831;SDS011;8016;49.928;9.372;2023-06-14T06:34:44;3.67;;;2.60;;
15831;SDS011;8016;49.928;9.372;2023-06-14T06:37:10;3.70;;;3.20;;
15831;SDS011;8016;49.928;9.372;2023-06-14T06:39:35;4.10;;;2.57;;
15831;SDS011;8016;49.928;9.372;2023-06-14T06:42:01;3.33;;;2.47;;
15831;SDS011;8016;49.928;9.372;2023-06-14T06:44:28;3.73;;;2.97;;
15831;SDS011;8016;49.928;9.372;2023-06-14T06:46:53;3.77;;;2.63;;
15831;SDS011;8016;49.928;9.372;2023-06-14T06:49:19;2.83;;;2.60;;
15831;SDS011;8016;49.928;9.372;2023-06-14T06:51:58;3.70;;;2.77;;
15831;SDS011;8016;49.928;9.372;2023-06-14T06:54:25;6.30;;;3.30;;
15831;SDS011;8016;49.928;9.372;2023-06-14T06:56:51;3.73;;;2.90;;
15831;SDS011;8016;49.928;9.372;2023-06-14T06:59:17;5.67;;;2.60;;
15831;SDS011;8016;49.928;9.372;2023-06-14T07:01:42;4.97;;;3.23;;
15831;SDS011;8016;49.928;9.372;2023-06-14T07:04:09;4.87;;;2.70;;
15831;SDS011;8016;49.928;9.372;2023-06-14T07:06:35;3.33;;;3.03;;
15831;SDS011;8016;49.928;9.372;2023-06-14T07:09:01;4.40;;;2.60;;
15831;SDS011;8016;49.928;9.372;2023-06-14T07:11:28;6.53;;;3.00;;
15831;SDS011;8016;49.928;9.372;2023-06-14T07:13:54;4.57;;;2.90;;
15831;SDS011;8016;49.928;9.372;2023-06-14T07:16:20;3.90;;;2.97;;
15831;SDS011;8016;49.928;9.372;2023-06-14T07:18:46;3.20;;;2.90;;
15831;SDS011;8016;49.928;9.372;2023-06-14T07:21:12;4.23;;;2.60;;
15831;SDS011;8016;49.928;9.372;2023-06-14T07:23:38;4.10;;;3.10;;
15831;SDS011;8016;49.928;9.372;2023-06-14T07:26:04;7.77;;;2.80;;
15831;SDS011;8016;49.928;9.372;2023-06-14T07:28:30;4.80;;;2.70;;
15831;SDS011;8016;49.928;9.372;2023-06-14T07:30:56;5.00;;;3.07;;
15831;SDS011;8016;49.928;9.372;2023-06-14T07:33:22;2.70;;;2.47;;
15831;SDS011;8016;49.928;9.372;2023-06-14T07:35:48;7.53;;;2.80;;
15831;SDS011;8016;49.928;9.372;2023-06-14T07:38:14;4.87;;;2.70;;
15831;SDS011;8016;49.928;9.372;2023-06-14T07:40:40;7.00;;;3.30;;
15831;SDS011;8016;49.928;9.372;2023-06-14T07:43:06;3.27;;;2.97;;
15831;SDS011;8016;49.928;9.372;2023-06-14T07:45:32;3.30;;;2.93;;
15831;SDS011;8016;49.928;9.372;2023-06-14T07:47:58;5.20;;;3.20;;
15831;SDS011;8016;49.928;9.372;2023-06-14T07:50:24;4.50;;;2.40;;
15831;SDS011;8016;49.928;9.372;2023-06-14T07:52:50;3.37;;;2.77;;
15831;SDS011;8016;49.928;9.372;2023-06-14T07:55:16;3.57;;;2.70;;
15831;SDS011;8016;49.928;9.372;2023-06-14T07:57:42;4.67;;;2.60;;
15831;SDS011;8016;49.928;9.372;2023-06-14T08:00:10;4.20;;;2.90;;
15831;SDS011;8016;49.928;9.372;2023-06-14T08:02:40;5.57;;;3.00;;
15831;SDS011;8016;49.928;9.372;2023-06-14T08:05:06;3.77;;;3.10;;
15831;SDS011;8016;49.928;9.372;2023-06-14T08:07:33;5.80;;;3.10;;
15831;SDS011;8016;49.928;9.372;2023-06-14T08:09:59;3.17;;;2.70;;
15831;SDS011;8016;49.928;9.372;2023-06-14T08:12:25;5.40;;;2.93;;
15831;SDS011;8016;49.928;9.372;2023-06-14T08:14:51;4.50;;;2.73;;
15831;SDS011;8016;49.928;9.372;2023-06-14T08:17:17;4.10;;;2.70;;
15831;SDS011;8016;49.928;9.372;2023-06-14T08:19:43;3.30;;;3.00;;
15831;SDS011;8016;49.928;9.372;2023-06-14T08:22:09;3.10;;;2.60;;
15831;SDS011;8016;49.928;9.372;2023-06-14T08:24:37;4.63;;;2.83;;
15831;SDS011;8016;49.928;9.372;2023-06-14T08:27:04;7.50;;;3.17;;
15831;SDS011;8016;49.928;9.372;2023-06-14T08:29:30;3.43;;;2.80;;
15831;SDS011;8016;49.928;9.372;2023-06-14T08:31:56;3.50;;;3.20;;
15831;SDS011;8016;49.928;9.372;2023-06-14T08:34:22;6.40;;;2.60;;
15831;SDS011;8016;49.928;9.372;2023-06-14T08:36:51;6.60;;;2.80;;
15831;SDS011;8016;49.928;9.372;2023-06-14T08:39:17;6.60;;;2.77;;
15831;SDS011;8016;49.928;9.372;2023-06-14T08:41:47;4.50;;;2.93;;
15831;SDS011;8016;49.928;9.372;2023-06-14T08:44:16;4.37;;;2.90;;
15831;SDS011;8016;49.928;9.372;2023-06-14T08:46:42;3.20;;;2.90;;
15831;SDS011;8016;49.928;9.372;2023-06-14T08:49:11;4.80;;;3.30;;
15831;SDS011;8016;49.928;9.372;2023-06-14T08:51:37;6.00;;;3.57;;
15831;SDS011;8016;49.928;9.372;2023-06-14T08:54:05;3.87;;;2.90;;
15831;SDS011;8016;49.928;9.372;2023-06-14T08:56:32;4.73;;;3.23;;
15831;SDS011;8016;49.928;9.372;2023-06-14T08:59:01;5.63;;;2.90;;
15831;SDS011;8016;49.928;9.372;2023-06-14T09:01:34;6.20;;;3.23;;
15831;SDS011;8016;49.928;9.372;2023-06-14T09:04:01;5.47;;;3.33;;
15831;SDS011;8016;49.928;9.372;2023-06-14T09:06:27;4.13;;;3.13;;
15831;SDS011;8016;49.928;9.372;2023-06-14T09:08:54;3.30;;;3.00;;
15831;SDS011;8016;49.928;9.372;2023-06-14T09:11:24;4.83;;;3.10;;
15831;SDS011;8016;49.928;9.372;2023-06-14T09:13:53;4.50;;;3.03;;
15831;SDS011;8016;49.928;9.372;2023-06-14T09:16:19;4.10;;;3.50;;
15831;SDS011;8016;49.928;9.372;2023-06-14T09:18:46;4.27;;;3.23;;
15831;SDS011;8016;49.928;9.372;2023-06-14T09:21:16;3.73;;;3.03;;
15831;SDS011;8016;49.928;9.372;2023-06-14T09:23:43;5.17;;;2.73;;
15831;SDS011;8016;49.928;9.372;2023-06-14T09:26:19;3.10;;;2.80;;
15831;SDS011;8016;49.928;9.372;2023-06-14T09:28:46;5.60;;;3.23;;
15831;SDS011;8016;49.928;9.372;2023-06-14T09:31:12;4.20;;;3.03;;
15831;SDS011;8016;49.928;9.372;2023-06-14T09:33:41;2.73;;;2.53;;
15831;SDS011;8016;49.928;9.372;2023-06-14T09:36:12;3.17;;;2.87;;
15831;SDS011;8016;49.928;9.372;2023-06-14T09:38:41;4.40;;;2.80;;
15831;SDS011;8016;49.928;9.372;2023-06-14T09:41:07;3.90;;;2.50;;
15831;SDS011;8016;49.928;9.372;2023-06-14T09:43:33;4.23;;;2.87;;
15831;SDS011;8016;49.928;9.372;2023-06-14T09:46:00;3.00;;;2.70;;
15831;SDS011;8016;49.928;9.372;2023-06-14T09:48:26;3.70;;;2.47;;
15831;SDS011;8016;49.928;9.372;2023-06-14T09:50:52;4.53;;;3.33;;
15831;SDS011;8016;49.928;9.372;2023-06-14T09:53:21;4.63;;;2.93;;
15831;SDS011;8016;49.928;9.372;2023-06-14T09:55:48;4.53;;;2.97;;
15831;SDS011;8016;49.928;9.372;2023-06-14T09:58:15;5.70;;;2.90;;
15831;SDS011;8016;49.928;9.372;2023-06-14T10:00:42;3.97;;;2.50;;
15831;SDS011;8016;49.928;9.372;2023-06-14T10:03:12;5.80;;;2.97;;
15831;SDS011;8016;49.928;9.372;2023-06-14T10:05:39;3.80;;;2.57;;
15831;SDS011;8016;49.928;9.372;2023-06-14T10:08:12;2.77;;;2.53;;
15831;SDS011;8016;49.928;9.372;2023-06-14T10:10:40;3.40;;;2.63;;
15831;SDS011;8016;49.928;9.372;2023-06-14T10:13:07;3.10;;;2.53;;
15831;SDS011;8016;49.928;9.372;2023-06-14T10:16:20;4.17;;;2.50;;
15831;SDS011;8016;49.928;9.372;2023-06-14T10:23:13;3.70;;;2.97;;
15831;SDS011;8016;49.928;9.372;2023-06-14T10:25:42;2.67;;;2.47;;
15831;SDS011;8016;49.928;9.372;2023-06-14T10:28:15;3.83;;;2.17;;
15831;SDS011;8016;49.928;9.372;2023-06-14T10:33:28;6.28;;;2.53;;
15831;SDS011;8016;49.928;9.372;2023-06-14T10:36:25;4.85;;;2.35;;
15831;SDS011;8016;49.928;9.372;2023-06-14T10:38:59;2.63;;;2.20;;
15831;SDS011;8016;49.928;9.372;2023-06-14T10:41:29;8.20;;;2.47;;
15831;SDS011;8016;49.928;9.372;2023-06-14T10:44:30;4.18;;;2.45;;
15831;SDS011;8016;49.928;9.372;2023-06-14T10:46:59;3.05;;;2.45;;
15831;SDS011;8016;49.928;9.372;2023-06-14T10:49:44;3.85;;;2.13;;
15831;SDS011;8016;49.928;9.372;2023-06-14T10:52:14;2.85;;;2.35;;
15831;SDS011;8016;49.928;9.372;2023-06-14T10:57:29;5.90;;;2.70;;
15831;SDS011;8016;49.928;9.372;2023-06-14T10:59:57;2.58;;;2.25;;
15831;SDS011;8016;49.928;9.372;2023-06-14T11:04:59;3.45;;;2.63;;
15831;SDS011;8016;49.928;9.372;2023-06-14T11:12:22;2.88;;;2.05;;
15831;SDS011;8016;49.928;9.372;2023-06-14T11:14:49;3.88;;;2.15;;
15831;SDS011;8016;49.928;9.372;2023-06-14T11:17:15;4.50;;;2.30;;
15831;SDS011;8016;49.928;9.372;2023-06-14T11:19:41;3.20;;;2.00;;
15831;SDS011;8016;49.928;9.372;2023-06-14T11:22:07;4.00;;;2.03;;
15831;SDS011;8016;49.928;9.372;2023-06-14T11:24:34;3.03;;;2.17;;
15831;SDS011;8016;49.928;9.372;2023-06-14T11:27:00;4.78;;;2.13;;
15831;SDS011;8016;49.928;9.372;2023-06-14T11:29:26;2.40;;;2.20;;
15831;SDS011;8016;49.928;9.372;2023-06-14T11:31:55;2.55;;;2.35;;
15831;SDS011;8016;49.928;9.372;2023-06-14T11:34:21;6.15;;;2.35;;
15831;SDS011;8016;49.928;9.372;2023-06-14T11:36:47;3.60;;;2.10;;
15831;SDS011;8016;49.928;9.372;2023-06-14T11:39:13;6.35;;;2.25;;
15831;SDS011;8016;49.928;9.372;2023-06-14T11:41:40;4.75;;;2.53;;
15831;SDS011;8016;49.928;9.372;2023-06-14T11:44:06;2.85;;;2.15;;
15831;SDS011;8016;49.928;9.372;2023-06-14T11:46:36;3.60;;;2.20;;
15831;SDS011;8016;49.928;9.372;2023-06-14T11:49:03;2.20;;;2.00;;
15831;SDS011;8016;49.928;9.372;2023-06-14T11:51:32;5.97;;;2.63;;
15831;SDS011;8016;49.928;9.372;2023-06-14T11:53:59;6.90;;;2.30;;
15831;SDS011;8016;49.928;9.372;2023-06-14T11:56:25;3.35;;;2.42;;
15831;SDS011;8016;49.928;9.372;2023-06-14T11:58:52;4.63;;;2.05;;
15831;SDS011;8016;49.928;9.372;2023-06-14T12:01:21;5.20;;;2.10;;
15831;SDS011;8016;49.928;9.372;2023-06-14T12:03:47;4.15;;;2.03;;
15831;SDS011;8016;49.928;9.372;2023-06-14T12:06:13;3.83;;;2.38;;
15831;SDS011;8016;49.928;9.372;2023-06-14T12:08:39;4.32;;;2.00;;
15831;SDS011;8016;49.928;9.372;2023-06-14T12:11:07;2.45;;;2.10;;
15831;SDS011;8016;49.928;9.372;2023-06-14T12:13:43;3.42;;;1.92;;
15831;SDS011;8016;49.928;9.372;2023-06-14T12:16:10;2.95;;;2.00;;
15831;SDS011;8016;49.928;9.372;2023-06-14T12:18:37;2.65;;;1.70;;
15831;SDS011;8016;49.928;9.372;2023-06-14T12:21:04;2.22;;;2.03;;
15831;SDS011;8016;49.928;9.372;2023-06-14T12:23:47;2.38;;;1.85;;
15831;SDS011;8016;49.928;9.372;2023-06-14T12:26:17;6.63;;;2.30;;
15831;SDS011;8016;49.928;9.372;2023-06-14T12:28:46;4.45;;;2.20;;
15831;SDS011;8016;49.928;9.372;2023-06-14T12:31:13;2.35;;;1.85;;
15831;SDS011;8016;49.928;9.372;2023-06-14T12:33:39;5.65;;;2.28;;
15831;SDS011;8016;49.928;9.372;2023-06-14T12:36:09;3.38;;;2.28;;
15831;SDS011;8016;49.928;9.372;2023-06-14T12:38:35;4.00;;;1.90;;
15831;SDS011;8016;49.928;9.372;2023-06-14T12:41:02;1.98;;;1.80;;
15831;SDS011;8016;49.928;9.372;2023-06-14T12:43:28;2.83;;;2.20;;
15831;SDS011;8016;49.928;9.372;2023-06-14T12:45:54;2.10;;;1.90;;
15831;SDS011;8016;49.928;9.372;2023-06-14T12:48:20;2.65;;;2.00;;
15831;SDS011;8016;49.928;9.372;2023-06-14T12:50:47;2.00;;;1.70;;
15831;SDS011;8016;49.928;9.372;2023-06-14T12:53:13;2.85;;;2.08;;
15831;SDS011;8016;49.928;9.372;2023-06-14T12:55:40;3.15;;;1.77;;
15831;SDS011;8016;49.928;9.372;2023-06-14T12:58:06;2.88;;;1.73;;
15831;SDS011;8016;49.928;9.372;2023-06-14T13:00:32;3.70;;;1.90;;
15831;SDS011;8016;49.928;9.372;2023-06-14T13:02:58;4.28;;;1.90;;
15831;SDS011;8016;49.928;9.372;2023-06-14T13:05:24;2.78;;;1.95;;
15831;SDS011;8016;49.928;9.372;2023-06-14T13:07:50;3.17;;;2.22;;
15831;SDS011;8016;49.928;9.372;2023-06-14T13:10:16;2.30;;;2.10;;
15831;SDS011;8016;49.928;9.372;2023-06-14T13:12:42;3.15;;;2.05;;
15831;SDS011;8016;49.928;9.372;2023-06-14T13:15:09;3.67;;;1.92;;
15831;SDS011;8016;49.928;9.372;2023-06-14T13:17:35;2.20;;;1.80;;
15831;SDS011;8016;49.928;9.372;2023-06-14T13:20:05;1.85;;;1.70;;
15831;SDS011;8016;49.928;9.372;2023-06-14T13:22:33;2.45;;;2.10;;
15831;SDS011;8016;49.928;9.372;2023-06-14T13:24:59;3.75;;;1.90;;
15831;SDS011;8016;49.928;9.372;2023-06-14T13:27:25;3.53;;;1.80;;
15831;SDS011;8016;49.928;9.372;2023-06-14T13:29:51;4.82;;;2.15;;
15831;SDS011;8016;49.928;9.372;2023-06-14T13:32:17;3.95;;;1.90;;
15831;SDS011;8016;49.928;9.372;2023-06-14T13:34:43;6.80;;;2.25;;
15831;SDS011;8016;49.928;9.372;2023-06-14T13:37:09;3.65;;;2.22;;
15831;SDS011;8016;49.928;9.372;2023-06-14T13:39:35;2.72;;;2.53;;
15831;SDS011;8016;49.928;9.372;2023-06-14T13:42:02;2.25;;;2.00;;
15831;SDS011;8016;49.928;9.372;2023-06-14T13:44:28;4.70;;;2.00;;
15831;SDS011;8016;49.928;9.372;2023-06-14T13:46:54;2.00;;;1.90;;
15831;SDS011;8016;49.928;9.372;2023-06-14T13:49:20;2.20;;;2.00;;
15831;SDS011;8016;49.928;9.372;2023-06-14T13:51:46;2.20;;;2.00;;
15831;SDS011;8016;49.928;9.372;2023-06-14T13:54:12;2.50;;;1.77;;
15831;SDS011;8016;49.928;9.372;2023-06-14T13:56:41;3.35;;;1.88;;
15831;SDS011;8016;49.928;9.372;2023-06-14T13:59:07;2.75;;;2.05;;
15831;SDS011;8016;49.928;9.372;2023-06-14T14:01:34;3.38;;;1.67;;
15831;SDS011;8016;49.928;9.372;2023-06-14T14:04:00;1.98;;;1.63;;
15831;SDS011;8016;49.928;9.372;2023-06-14T14:06:27;2.83;;;1.67;;
15831;SDS011;8016;49.928;9.372;2023-06-14T14:08:53;2.10;;;1.90;;
15831;SDS011;8016;49.928;9.372;2023-06-14T14:11:19;3.05;;;1.83;;
15831;SDS011;8016;49.928;9.372;2023-06-14T14:13:45;2.80;;;1.98;;
15831;SDS011;8016;49.928;9.372;2023-06-14T14:16:12;2.45;;;2.25;;
15831;SDS011;8016;49.928;9.372;2023-06-14T14:18:38;7.07;;;2.22;;
15831;SDS011;8016;49.928;9.372;2023-06-14T14:21:04;2.13;;;1.80;;
15831;SDS011;8016;49.928;9.372;2023-06-14T14:23:30;3.05;;;1.80;;
15831;SDS011;8016;49.928;9.372;2023-06-14T14:25:56;2.08;;;1.85;;
15831;SDS011;8016;49.928;9.372;2023-06-14T14:28:22;3.78;;;1.90;;
15831;SDS011;8016;49.928;9.372;2023-06-14T14:30:48;3.25;;;1.90;;
15831;SDS011;8016;49.928;9.372;2023-06-14T14:33:14;2.38;;;1.75;;
15831;SDS011;8016;49.928;9.372;2023-06-14T14:35:45;3.70;;;1.85;;
15831;SDS011;8016;49.928;9.372;2023-06-14T14:38:11;5.03;;;1.83;;
15831;SDS011;8016;49.928;9.372;2023-06-14T14:40:38;2.38;;;2.03;;
15831;SDS011;8016;49.928;9.372;2023-06-14T14:43:05;2.22;;;2.03;;
15831;SDS011;8016;49.928;9.372;2023-06-14T14:45:31;3.83;;;2.63;;
15831;SDS011;8016;49.928;9.372;2023-06-14T14:47:57;2.92;;;2.05;;
15831;SDS011;8016;49.928;9.372;2023-06-14T14:50:24;3.25;;;1.85;;
15831;SDS011;8016;49.928;9.372;2023-06-14T14:52:50;4.30;;;2.15;;
15831;SDS011;8016;49.928;9.372;2023-06-14T14:55:16;3.28;;;1.80;;
15831;SDS011;8016;49.928;9.372;2023-06-14T14:57:43;3.70;;;2.03;;
15831;SDS011;8016;49.928;9.372;2023-06-14T15:00:09;2.22;;;1.52;;
15831;SDS011;8016;49.928;9.372;2023-06-14T15:02:35;3.72;;;1.52;;
15831;SDS011;8016;49.928;9.372;2023-06-14T15:05:01;1.65;;;1.55;;
15831;SDS011;8016;49.928;9.372;2023-06-14T15:07:27;1.67;;;1.58;;
15831;SDS011;8016;49.928;9.372;2023-06-14T15:09:54;4.25;;;2.03;;
15831;SDS011;8016;49.928;9.372;2023-06-14T15:12:20;2.80;;;1.85;;
15831;SDS011;8016;49.928;9.372;2023-06-14T15:14:49;2.47;;;1.90;;
15831;SDS011;8016;49.928;9.372;2023-06-14T15:17:16;4.35;;;2.08;;
15831;SDS011;8016;49.928;9.372;2023-06-14T15:19:43;3.75;;;1.90;;